createdAt,value
2022-10-29T00:00:46.854Z,0.00
2022-10-29T00:01:51.156Z,0.00
2022-10-29T00:02:55.509Z,0.00
2022-10-29T00:03:59.633Z,0.00
2022-10-29T00:05:04.162Z,0.00
2022-10-29T00:06:08.453Z,0.50
2022-10-29T00:07:12.663Z,0.50
2022-10-29T00:08:16.862Z,0.00
2022-10-29T00:09:21.178Z,0.00
2022-10-29T00:10:25.402Z,0.00
2022-10-29T00:11:29.559Z,0.00
2022-10-29T00:12:33.792Z,0.00
2022-10-29T00:13:38.100Z,0.00
2022-10-29T00:14:42.323Z,0.00
2022-10-29T00:15:46.336Z,0.00
2022-10-29T00:16:50.338Z,0.00
2022-10-29T00:17:54.792Z,0.00
2022-10-29T00:18:59.239Z,0.00
2022-10-29T00:20:03.598Z,0.00
2022-10-29T00:21:07.854Z,0.00
2022-10-29T00:22:11.760Z,0.00
2022-10-29T00:23:15.744Z,0.00
2022-10-29T00:24:20.357Z,0.00
2022-10-29T00:25:24.468Z,0.00
2022-10-29T00:26:28.457Z,0.00
2022-10-29T00:27:32.672Z,0.00
2022-10-29T00:28:36.984Z,0.00
2022-10-29T00:29:41.397Z,0.00
2022-10-29T00:30:45.491Z,0.00
2022-10-29T00:31:49.762Z,0.00
2022-10-29T00:32:54.171Z,0.00
2022-10-29T00:33:58.732Z,0.00
2022-10-29T00:35:02.961Z,0.00
2022-10-29T00:36:06.900Z,0.00
2022-10-29T00:37:11.245Z,0.00
2022-10-29T00:38:15.655Z,0.00
2022-10-29T00:39:20.065Z,0.00
2022-10-29T00:40:24.474Z,0.00
2022-10-29T00:41:28.686Z,0.00
2022-10-29T00:42:32.712Z,0.00
2022-10-29T00:43:36.757Z,0.00
2022-10-29T00:44:40.582Z,0.00
2022-10-29T00:45:44.531Z,0.00
2022-10-29T00:46:48.586Z,0.00
2022-10-29T00:47:52.860Z,0.00
2022-10-29T00:48:56.992Z,0.00
2022-10-29T00:50:01.015Z,0.00
2022-10-29T00:51:05.299Z,0.00
2022-10-29T00:52:09.305Z,0.00
2022-10-29T00:53:13.709Z,0.00
2022-10-29T00:54:17.718Z,0.00
2022-10-29T00:55:21.719Z,0.00
2022-10-29T00:56:25.830Z,0.25
2022-10-29T00:57:29.926Z,0.50
2022-10-29T00:58:34.166Z,0.00
2022-10-29T00:59:38.351Z,0.00
2022-10-29T01:00:42.446Z,0.00
2022-10-29T01:01:46.816Z,0.00
2022-10-29T01:02:50.913Z,0.00
2022-10-29T01:03:54.961Z,0.00
2022-10-29T01:04:59.176Z,0.00
2022-10-29T01:06:03.775Z,0.00
2022-10-29T01:07:08.191Z,0.00
2022-10-29T01:08:12.495Z,0.00
2022-10-29T01:09:17.208Z,0.00
2022-10-29T01:10:21.327Z,0.00
2022-10-29T01:11:25.321Z,0.00
2022-10-29T01:12:29.830Z,0.00
2022-10-29T01:13:34.048Z,0.00
2022-10-29T01:14:38.057Z,0.00
2022-10-29T01:15:42.179Z,0.00
2022-10-29T01:16:46.257Z,0.00
2022-10-29T01:17:50.649Z,0.00
2022-10-29T01:18:54.671Z,0.00
2022-10-29T01:19:58.653Z,0.00
2022-10-29T01:21:03.069Z,0.00
2022-10-29T01:22:07.063Z,0.00
2022-10-29T01:23:11.479Z,0.00
2022-10-29T01:24:15.576Z,0.00
2022-10-29T01:25:19.833Z,0.00
2022-10-29T01:26:24.092Z,0.00
2022-10-29T01:27:28.100Z,0.00
2022-10-29T01:29:35.688Z,0.00
2022-10-29T01:30:39.793Z,0.00
2022-10-29T01:31:43.687Z,0.50
2022-10-29T01:32:47.484Z,0.50
2022-10-29T01:33:51.588Z,0.00
2022-10-29T01:34:55.753Z,0.00
2022-10-29T01:35:59.799Z,0.00
2022-10-29T01:37:04.119Z,0.00
2022-10-29T01:38:08.625Z,0.00
2022-10-29T01:39:12.725Z,0.00
2022-10-29T01:40:16.827Z,0.00
2022-10-29T01:41:21.033Z,0.00
2022-10-29T01:42:25.118Z,0.00
2022-10-29T01:43:29.346Z,0.00
2022-10-29T01:44:33.552Z,0.50
2022-10-29T01:45:37.649Z,0.50
2022-10-29T01:46:41.649Z,0.00
2022-10-29T01:47:45.956Z,0.00
2022-10-29T01:48:50.065Z,0.00
2022-10-29T01:49:54.075Z,0.00
2022-10-29T01:50:58.111Z,0.00
2022-10-29T01:52:02.041Z,0.00
2022-10-29T01:53:06.079Z,0.00
2022-10-29T01:54:10.073Z,0.00
2022-10-29T01:55:14.171Z,0.00
2022-10-29T01:56:18.286Z,0.00
2022-10-29T01:57:22.373Z,0.00
2022-10-29T01:58:26.482Z,0.00
2022-10-29T01:59:43.216Z,0.50
2022-10-29T02:00:35.673Z,0.50
2022-10-29T02:01:39.996Z,0.00
2022-10-29T02:02:48.255Z,0.00
2022-10-29T02:03:49.288Z,0.00
2022-10-29T02:04:53.252Z,0.00
2022-10-29T02:05:57.574Z,0.00
2022-10-29T02:07:01.354Z,0.00
2022-10-29T02:08:05.369Z,0.00
2022-10-29T02:09:09.413Z,0.00
2022-10-29T02:10:13.372Z,0.00
2022-10-29T02:11:17.567Z,0.00
2022-10-29T02:12:21.667Z,0.00
2022-10-29T02:13:25.776Z,0.00
2022-10-29T02:14:29.965Z,0.00
2022-10-29T02:15:33.902Z,0.00
2022-10-29T02:16:38.084Z,0.00
2022-10-29T02:17:42.084Z,0.00
2022-10-29T02:18:46.183Z,0.00
2022-10-29T02:19:50.504Z,0.00
2022-10-29T02:20:54.496Z,0.00
2022-10-29T02:21:58.803Z,0.00
2022-10-29T02:23:02.912Z,0.00
2022-10-29T02:24:07.120Z,0.50
2022-10-29T02:25:11.060Z,0.00
2022-10-29T02:26:15.224Z,0.00
2022-10-29T02:27:19.320Z,0.00
2022-10-29T02:28:23.654Z,0.00
2022-10-29T02:29:28.034Z,0.00
2022-10-29T02:30:32.145Z,0.00
2022-10-29T02:31:36.244Z,0.00
2022-10-29T02:32:40.243Z,0.00
2022-10-29T02:33:44.145Z,0.00
2022-10-29T02:34:48.966Z,0.00
2022-10-29T02:35:53.379Z,0.00
2022-10-29T02:36:57.507Z,0.00
2022-10-29T02:38:01.382Z,0.00
2022-10-29T02:39:05.609Z,0.00
2022-10-29T02:40:09.551Z,0.00
2022-10-29T02:41:13.790Z,0.00
2022-10-29T02:42:17.800Z,0.50
2022-10-29T02:43:22.216Z,0.00
2022-10-29T02:44:26.519Z,0.00
2022-10-29T02:45:30.519Z,0.00
2022-10-29T02:46:34.622Z,0.00
2022-10-29T02:47:38.749Z,0.00
2022-10-29T02:48:42.935Z,0.00
2022-10-29T02:49:46.742Z,0.00
2022-10-29T02:50:50.936Z,0.00
2022-10-29T02:51:54.865Z,0.00
2022-10-29T02:52:58.934Z,0.00
2022-10-29T02:54:02.935Z,0.00
2022-10-29T02:55:06.926Z,0.00
2022-10-29T02:56:11.039Z,0.00
2022-10-29T02:57:15.039Z,0.00
2022-10-29T02:58:19.094Z,0.00
2022-10-29T02:59:23.350Z,0.00
2022-10-29T03:00:27.342Z,0.00
2022-10-29T03:01:31.304Z,0.00
2022-10-29T03:02:35.575Z,0.00
2022-10-29T03:03:39.758Z,0.00
2022-10-29T03:04:43.864Z,0.00
2022-10-29T03:05:49.167Z,0.00
2022-10-29T03:06:53.397Z,0.00
2022-10-29T03:07:59.687Z,0.00
2022-10-29T03:09:03.655Z,0.00
2022-10-29T03:10:07.863Z,0.00
2022-10-29T03:11:11.951Z,0.00
2022-10-29T03:12:16.173Z,0.00
2022-10-29T03:13:20.170Z,0.00
2022-10-29T03:14:24.389Z,0.00
2022-10-29T03:15:28.372Z,0.00
2022-10-29T03:16:32.174Z,0.00
2022-10-29T03:17:36.281Z,0.00
2022-10-29T03:18:40.484Z,0.00
2022-10-29T03:19:44.694Z,0.00
2022-10-29T03:20:48.622Z,0.50
2022-10-29T03:21:52.691Z,0.00
2022-10-29T03:22:56.699Z,0.00
2022-10-29T03:24:00.620Z,0.00
2022-10-29T03:25:04.798Z,0.00
2022-10-29T03:26:08.823Z,0.00
2022-10-29T03:27:12.777Z,0.00
2022-10-29T03:28:16.730Z,0.00
2022-10-29T03:29:20.781Z,0.00
2022-10-29T03:30:27.977Z,0.00
2022-10-29T03:31:32.184Z,0.00
2022-10-29T03:32:36.494Z,0.00
2022-10-29T03:33:40.592Z,0.00
2022-10-29T03:34:44.800Z,0.00
2022-10-29T03:35:49.094Z,0.00
2022-10-29T03:36:53.413Z,0.00
2022-10-29T03:37:57.822Z,0.00
2022-10-29T03:39:01.950Z,0.00
2022-10-29T03:40:06.244Z,0.00
2022-10-29T03:41:11.390Z,0.00
2022-10-29T03:42:15.677Z,0.00
2022-10-29T03:43:19.918Z,0.00
2022-10-29T03:44:24.085Z,0.00
2022-10-29T03:45:28.391Z,0.00
2022-10-29T03:46:32.400Z,0.00
2022-10-29T03:47:36.297Z,0.00
2022-10-29T03:48:40.526Z,0.00
2022-10-29T03:49:44.708Z,0.00
2022-10-29T03:50:48.608Z,0.00
2022-10-29T03:51:52.696Z,0.00
2022-10-29T03:52:56.708Z,0.00
2022-10-29T03:54:00.818Z,0.00
2022-10-29T03:55:05.166Z,0.00
2022-10-29T03:56:09.020Z,0.00
2022-10-29T03:57:13.535Z,0.00
2022-10-29T03:58:17.438Z,0.00
2022-10-29T03:59:21.533Z,0.00
2022-10-29T04:00:25.849Z,0.00
2022-10-29T04:01:30.201Z,0.00
2022-10-29T04:02:34.401Z,0.00
2022-10-29T04:03:38.354Z,0.00
2022-10-29T04:04:42.473Z,0.00
2022-10-29T04:05:46.769Z,0.00
2022-10-29T04:06:51.022Z,0.00
2022-10-29T04:07:55.076Z,0.00
2022-10-29T04:08:59.007Z,0.00
2022-10-29T04:10:03.078Z,0.00
2022-10-29T04:11:06.981Z,0.00
2022-10-29T04:12:11.183Z,0.00
2022-10-29T04:13:15.292Z,0.00
2022-10-29T04:14:19.392Z,0.00
2022-10-29T04:15:23.493Z,0.00
2022-10-29T04:16:27.491Z,0.00
2022-10-29T04:17:31.490Z,0.00
2022-10-29T04:18:35.701Z,0.00
2022-10-29T04:19:39.821Z,0.00
2022-10-29T04:21:54.073Z,0.00
2022-10-29T04:24:48.672Z,0.00
2022-10-29T04:28:42.343Z,0.00
2022-10-29T04:29:24.113Z,0.00
2022-10-29T04:30:28.114Z,0.00
2022-10-29T04:31:32.014Z,0.00
2022-10-29T04:32:36.013Z,0.00
2022-10-29T04:33:40.014Z,0.00
2022-10-29T04:34:43.910Z,0.00
2022-10-29T04:35:47.916Z,0.00
2022-10-29T04:36:52.010Z,0.00
2022-10-29T04:37:56.224Z,0.00
2022-10-29T04:39:00.749Z,0.00
2022-10-29T04:40:04.947Z,0.00
2022-10-29T04:41:09.353Z,0.00
2022-10-29T04:42:13.249Z,0.00
2022-10-29T04:43:17.353Z,0.00
2022-10-29T04:44:21.355Z,0.00
2022-10-29T04:45:25.356Z,0.00
2022-10-29T04:46:29.344Z,0.00
2022-10-29T04:47:33.270Z,0.00
2022-10-29T04:48:37.684Z,0.00
2022-10-29T04:49:41.560Z,0.00
2022-10-29T04:50:45.774Z,0.00
2022-10-29T04:51:49.876Z,0.00
2022-10-29T04:52:54.080Z,0.00
2022-10-29T04:53:58.079Z,0.00
2022-10-29T04:55:02.066Z,0.00
2022-10-29T04:56:05.901Z,0.00
2022-10-29T04:57:10.192Z,0.00
2022-10-29T04:58:14.305Z,0.00
2022-10-29T04:59:18.388Z,0.00
2022-10-29T05:00:22.414Z,0.50
2022-10-29T05:01:26.536Z,0.50
2022-10-29T05:02:30.713Z,0.00
2022-10-29T05:03:34.711Z,0.00
2022-10-29T05:04:38.601Z,0.00
2022-10-29T05:05:42.746Z,0.00
2022-10-29T05:06:46.745Z,0.00
2022-10-29T05:07:50.804Z,0.00
2022-10-29T05:08:54.814Z,0.00
2022-10-29T05:09:58.913Z,0.00
2022-10-29T05:11:03.014Z,0.00
2022-10-29T05:12:06.983Z,0.00
2022-10-29T05:13:10.707Z,0.00
2022-10-29T05:14:14.608Z,0.00
2022-10-29T05:15:18.608Z,0.00
2022-10-29T05:16:22.373Z,0.00
2022-10-29T05:17:26.413Z,0.00
2022-10-29T05:18:30.643Z,0.00
2022-10-29T05:19:34.713Z,0.00
2022-10-29T05:20:38.617Z,0.00
2022-10-29T05:21:42.587Z,0.00
2022-10-29T05:22:46.511Z,0.00
2022-10-29T05:23:50.540Z,0.00
2022-10-29T05:24:54.620Z,0.00
2022-10-29T05:25:58.379Z,0.00
2022-10-29T05:27:02.344Z,0.00
2022-10-29T05:28:06.728Z,0.00
2022-10-29T05:29:10.733Z,0.00
2022-10-29T05:30:14.530Z,0.00
2022-10-29T05:31:18.724Z,0.00
2022-10-29T05:32:22.750Z,0.25
2022-10-29T05:33:26.734Z,0.00
2022-10-29T05:34:30.728Z,0.00
2022-10-29T05:35:34.739Z,0.00
2022-10-29T05:36:38.728Z,0.00
2022-10-29T05:37:42.770Z,0.00
2022-10-29T05:38:46.840Z,0.00
2022-10-29T05:39:51.048Z,0.00
2022-10-29T05:40:54.906Z,0.00
2022-10-29T05:41:58.838Z,0.00
2022-10-29T05:43:03.053Z,0.00
2022-10-29T05:44:07.053Z,0.00
2022-10-29T05:45:11.176Z,0.00
2022-10-29T05:46:15.084Z,0.00
2022-10-29T05:47:19.363Z,0.00
2022-10-29T05:48:23.362Z,0.00
2022-10-29T05:49:27.462Z,0.00
2022-10-29T05:50:31.361Z,0.00
2022-10-29T05:51:35.292Z,0.00
2022-10-29T05:52:39.363Z,0.00
2022-10-29T05:53:43.365Z,0.00
2022-10-29T05:54:47.370Z,0.00
2022-10-29T05:55:51.669Z,0.00
2022-10-29T05:56:55.722Z,0.00
2022-10-29T05:57:59.673Z,0.00
2022-10-29T05:59:03.780Z,0.00
2022-10-29T06:00:07.676Z,0.00
2022-10-29T06:01:12.185Z,0.00
2022-10-29T06:02:16.636Z,0.00
2022-10-29T06:03:20.808Z,0.00
2022-10-29T06:04:24.810Z,0.00
2022-10-29T06:05:28.811Z,0.00
2022-10-29T06:06:32.660Z,0.00
2022-10-29T06:07:36.586Z,0.00
2022-10-29T06:08:40.621Z,0.00
2022-10-29T06:09:44.609Z,0.00
2022-10-29T06:10:48.609Z,0.00
2022-10-29T06:11:52.611Z,0.00
2022-10-29T06:12:56.636Z,0.00
2022-10-29T06:14:00.619Z,0.00
2022-10-29T06:15:05.027Z,0.00
2022-10-29T06:16:09.172Z,0.00
2022-10-29T06:17:13.226Z,0.00
2022-10-29T06:18:17.150Z,0.00
2022-10-29T06:19:22.773Z,0.00
2022-10-29T06:20:27.123Z,0.00
2022-10-29T06:21:30.982Z,0.00
2022-10-29T06:22:34.870Z,0.00
2022-10-29T06:23:38.979Z,0.00
2022-10-29T06:24:42.979Z,0.00
2022-10-29T06:25:46.909Z,0.00
2022-10-29T06:26:50.984Z,0.00
2022-10-29T06:27:55.193Z,0.00
2022-10-29T06:28:59.545Z,0.00
2022-10-29T06:30:03.908Z,0.00
2022-10-29T06:31:08.428Z,0.00
2022-10-29T06:32:12.562Z,0.00
2022-10-29T06:33:16.324Z,0.00
2022-10-29T06:34:20.182Z,0.00
2022-10-29T06:35:24.558Z,0.00
2022-10-29T06:36:28.394Z,0.00
2022-10-29T06:37:32.196Z,0.00
2022-10-29T06:38:36.121Z,0.00
2022-10-29T06:39:40.111Z,0.00
2022-10-29T06:40:44.123Z,0.00
2022-10-29T06:41:48.121Z,0.00
2022-10-29T06:42:52.227Z,0.00
2022-10-29T06:43:56.435Z,0.00
2022-10-29T06:45:00.430Z,0.50
2022-10-29T06:46:04.743Z,0.25
2022-10-29T06:47:08.627Z,0.00
2022-10-29T06:48:12.408Z,0.00
2022-10-29T06:49:16.541Z,0.00
2022-10-29T06:50:20.362Z,0.00
2022-10-29T06:51:24.464Z,0.00
2022-10-29T06:52:28.441Z,0.00
2022-10-29T06:53:32.353Z,0.00
2022-10-29T06:54:36.550Z,0.00
2022-10-29T06:55:40.642Z,0.00
2022-10-29T06:56:44.674Z,0.00
2022-10-29T06:57:48.648Z,0.00
2022-10-29T06:58:52.646Z,0.00
2022-10-29T06:59:56.710Z,0.00
2022-10-29T07:01:00.652Z,0.00
2022-10-29T07:02:04.560Z,0.00
2022-10-29T07:03:08.658Z,0.00
2022-10-29T07:04:12.452Z,0.00
2022-10-29T07:05:16.213Z,0.00
2022-10-29T07:06:20.251Z,0.00
2022-10-29T07:08:27.737Z,0.00
2022-10-29T07:09:32.059Z,0.00
2022-10-29T07:10:35.878Z,0.00
2022-10-29T07:11:41.064Z,0.00
2022-10-29T07:12:44.861Z,0.00
2022-10-29T07:13:48.869Z,0.00
2022-10-29T07:14:52.974Z,0.50
2022-10-29T07:15:56.976Z,0.50
2022-10-29T07:17:00.870Z,0.00
2022-10-29T07:18:04.900Z,0.00
2022-10-29T07:19:08.846Z,0.00
2022-10-29T07:20:12.980Z,0.00
2022-10-29T07:21:17.025Z,0.00
2022-10-29T07:22:21.282Z,0.00
2022-10-29T07:23:25.125Z,0.00
2022-10-29T07:24:29.311Z,0.00
2022-10-29T07:25:33.499Z,0.00
2022-10-29T07:26:37.409Z,0.00
2022-10-29T07:27:41.579Z,0.00
2022-10-29T07:28:45.712Z,0.00
2022-10-29T07:29:49.911Z,0.00
2022-10-29T07:30:54.225Z,0.00
2022-10-29T07:31:58.213Z,0.50
2022-10-29T07:33:02.123Z,0.25
2022-10-29T07:34:06.101Z,0.00
2022-10-29T07:35:09.883Z,0.00
2022-10-29T07:36:13.913Z,0.00
2022-10-29T07:37:17.824Z,0.00
2022-10-29T07:38:21.715Z,0.00
2022-10-29T07:39:27.380Z,0.00
2022-10-29T07:40:31.348Z,0.00
2022-10-29T07:41:35.267Z,0.00
2022-10-29T07:42:39.041Z,0.25
2022-10-29T07:43:43.148Z,0.25
2022-10-29T07:44:47.149Z,0.00
2022-10-29T07:45:51.146Z,0.00
2022-10-29T07:46:55.032Z,0.00
2022-10-29T07:48:02.674Z,0.25
2022-10-29T07:49:04.285Z,0.00
2022-10-29T07:50:08.489Z,0.00
2022-10-29T07:51:12.596Z,0.00
2022-10-29T07:52:16.795Z,0.00
2022-10-29T07:53:20.593Z,0.00
2022-10-29T07:54:24.590Z,0.00
2022-10-29T07:56:31.984Z,0.00
2022-10-29T07:57:35.681Z,0.50
2022-10-29T07:58:39.987Z,-0.25
2022-10-29T07:59:44.187Z,0.00
2022-10-29T08:00:48.207Z,0.50
2022-10-29T08:01:52.280Z,0.00
2022-10-29T08:02:55.994Z,0.00
2022-10-29T08:03:59.987Z,0.00
2022-10-29T08:05:03.989Z,0.50
2022-10-29T08:06:07.989Z,0.25
2022-10-29T08:07:11.888Z,0.00
2022-10-29T08:08:15.899Z,0.00
2022-10-29T08:09:20.105Z,0.00
2022-10-29T08:10:24.061Z,0.00
2022-10-29T08:11:29.562Z,0.00
2022-10-29T08:12:33.431Z,0.00
2022-10-29T08:13:37.533Z,0.00
2022-10-29T08:14:41.230Z,0.00
2022-10-29T08:15:45.461Z,0.50
2022-10-29T08:16:49.540Z,1.00
2022-10-29T08:17:53.846Z,0.25
2022-10-29T08:18:57.851Z,0.00
2022-10-29T08:20:01.850Z,0.00
2022-10-29T08:21:05.642Z,-0.25
2022-10-29T08:22:09.749Z,0.00
2022-10-29T08:23:13.654Z,0.00
2022-10-29T08:24:17.673Z,0.00
2022-10-29T08:25:21.754Z,0.00
2022-10-29T08:26:25.552Z,0.00
2022-10-29T08:27:29.573Z,0.00
2022-10-29T08:28:35.730Z,0.00
2022-10-29T08:29:38.880Z,1.00
2022-10-29T08:30:43.195Z,0.50
2022-10-29T08:31:47.193Z,0.50
2022-10-29T08:32:51.231Z,0.00
2022-10-29T08:33:55.399Z,0.50
2022-10-29T08:34:59.338Z,1.00
2022-10-29T08:36:03.711Z,0.25
2022-10-29T08:37:07.715Z,0.00
2022-10-29T08:38:11.916Z,0.25
2022-10-29T08:39:15.921Z,0.50
2022-10-29T08:40:19.922Z,0.00
2022-10-29T08:41:32.012Z,0.00
2022-10-29T08:42:37.460Z,0.75
2022-10-29T08:43:46.126Z,0.25
2022-10-29T08:44:46.471Z,1.00
2022-10-29T08:45:50.367Z,1.00
2022-10-29T08:46:54.371Z,0.25
2022-10-29T08:47:58.547Z,1.00
2022-10-29T08:49:03.017Z,1.00
2022-10-29T08:50:06.919Z,0.50
2022-10-29T08:51:10.992Z,0.50
2022-10-29T08:52:14.909Z,0.25
2022-10-29T08:53:23.446Z,0.25
2022-10-29T08:54:31.001Z,0.00
2022-10-29T08:55:29.962Z,0.00
2022-10-29T08:56:33.962Z,0.50
2022-10-29T08:57:37.932Z,1.00
2022-10-29T08:58:41.754Z,1.00
2022-10-29T08:59:45.864Z,0.00
2022-10-29T09:00:49.910Z,0.00
2022-10-29T09:01:54.055Z,1.00
2022-10-29T09:02:58.781Z,0.50
2022-10-29T09:04:02.773Z,1.25
2022-10-29T09:05:06.560Z,1.00
2022-10-29T09:06:10.375Z,0.00
2022-10-29T09:07:14.179Z,0.00
2022-10-29T09:08:18.077Z,0.25
2022-10-29T09:09:21.875Z,0.50
2022-10-29T09:10:25.565Z,0.50
2022-10-29T09:11:29.465Z,1.00
2022-10-29T09:12:33.358Z,0.25
2022-10-29T09:13:37.469Z,0.00
2022-10-29T09:14:41.461Z,0.50
2022-10-29T09:15:45.374Z,0.50
2022-10-29T09:16:49.383Z,0.00
2022-10-29T09:17:53.504Z,0.00
2022-10-29T09:18:57.271Z,0.00
2022-10-29T09:20:01.174Z,0.00
2022-10-29T09:21:05.064Z,0.00
2022-10-29T09:22:08.961Z,1.00
2022-10-29T09:23:12.964Z,0.50
2022-10-29T09:24:17.073Z,0.00
2022-10-29T09:25:21.073Z,0.00
2022-10-29T09:26:25.079Z,0.00
2022-10-29T09:27:29.067Z,0.50
2022-10-29T09:28:33.055Z,0.00
2022-10-29T09:29:37.276Z,0.00
2022-10-29T09:30:41.180Z,0.50
2022-10-29T09:31:45.183Z,0.00
2022-10-29T09:33:55.357Z,0.00
2022-10-29T09:34:58.205Z,0.50
2022-10-29T09:36:02.411Z,0.00
2022-10-29T09:37:06.305Z,0.00
2022-10-29T09:38:10.653Z,0.50
2022-10-29T09:39:14.822Z,0.50
2022-10-29T09:40:18.613Z,1.00
2022-10-29T09:41:22.452Z,1.00
2022-10-29T09:42:26.618Z,0.50
2022-10-29T09:43:30.526Z,0.25
2022-10-29T09:44:34.726Z,0.00
2022-10-29T09:45:38.727Z,0.00
2022-10-29T09:46:42.727Z,0.50
2022-10-29T09:47:46.530Z,0.00
2022-10-29T09:48:52.394Z,0.00
2022-10-29T09:49:56.230Z,0.00
2022-10-29T09:51:00.268Z,0.00
2022-10-29T09:52:04.074Z,0.25
2022-10-29T09:53:08.637Z,0.50
2022-10-29T09:54:12.894Z,1.00
2022-10-29T09:55:16.959Z,1.00
2022-10-29T09:56:21.095Z,0.25
2022-10-29T09:57:24.961Z,0.00
2022-10-29T09:58:29.401Z,0.00
2022-10-29T09:59:33.403Z,0.00
2022-10-29T10:00:37.312Z,0.00
2022-10-29T10:01:41.595Z,0.50
2022-10-29T10:02:45.450Z,0.00
2022-10-29T10:03:49.376Z,0.00
2022-10-29T10:04:54.568Z,0.00
2022-10-29T10:05:58.323Z,0.25
2022-10-29T10:07:02.091Z,0.00
2022-10-29T10:08:05.962Z,0.00
2022-10-29T10:09:09.812Z,0.00
2022-10-29T10:10:13.714Z,0.00
2022-10-29T10:11:17.542Z,0.00
2022-10-29T10:12:21.625Z,0.00
2022-10-29T10:13:27.361Z,0.00
2022-10-29T10:14:30.690Z,0.50
2022-10-29T10:15:34.651Z,0.25
2022-10-29T10:16:40.031Z,0.00
2022-10-29T10:17:43.977Z,0.00
2022-10-29T10:18:47.887Z,0.00
2022-10-29T10:19:51.782Z,0.50
2022-10-29T10:20:59.308Z,0.00
2022-10-29T10:22:03.258Z,0.00
2022-10-29T10:23:07.270Z,0.00
2022-10-29T10:24:11.267Z,0.00
2022-10-29T10:25:15.472Z,0.00
2022-10-29T10:26:19.466Z,0.00
2022-10-29T10:27:23.677Z,0.00
2022-10-29T10:28:27.814Z,0.00
2022-10-29T10:29:31.676Z,0.00
2022-10-29T10:30:35.780Z,0.00
2022-10-29T10:31:39.971Z,0.00
2022-10-29T10:32:43.989Z,0.00
2022-10-29T10:33:47.893Z,0.00
2022-10-29T10:34:51.790Z,0.50
2022-10-29T10:35:55.572Z,0.50
2022-10-29T10:36:59.373Z,0.00
2022-10-29T10:38:03.380Z,0.00
2022-10-29T10:39:07.693Z,0.00
2022-10-29T10:40:11.732Z,0.00
2022-10-29T10:41:15.786Z,0.00
2022-10-29T10:42:19.689Z,0.00
2022-10-29T10:43:23.788Z,0.50
2022-10-29T10:44:27.835Z,0.00
2022-10-29T10:45:31.842Z,0.00
2022-10-29T10:46:36.112Z,0.00
2022-10-29T10:47:40.316Z,0.00
2022-10-29T10:48:44.168Z,0.00
2022-10-29T10:49:48.034Z,0.00
2022-10-29T10:50:51.914Z,0.00
2022-10-29T10:51:55.805Z,0.00
2022-10-29T10:53:00.230Z,0.00
2022-10-29T10:54:04.556Z,0.00
2022-10-29T10:55:08.730Z,0.00
2022-10-29T10:56:12.730Z,0.00
2022-10-29T10:57:16.600Z,0.00
2022-10-29T10:58:20.638Z,0.00
2022-10-29T10:59:24.630Z,0.00
2022-10-29T11:00:28.479Z,0.00
2022-10-29T11:01:32.702Z,0.00
2022-10-29T11:02:36.639Z,0.00
2022-10-29T11:03:40.432Z,0.00
2022-10-29T11:04:44.640Z,0.00
2022-10-29T11:05:48.642Z,0.50
2022-10-29T11:06:52.544Z,0.00
2022-10-29T11:07:57.086Z,0.00
2022-10-29T11:09:01.264Z,0.00
2022-10-29T11:10:05.258Z,0.00
2022-10-29T11:11:09.508Z,0.00
2022-10-29T11:12:13.368Z,0.00
2022-10-29T11:13:17.466Z,0.00
2022-10-29T11:14:21.581Z,0.00
2022-10-29T11:15:26.325Z,0.00
2022-10-29T11:16:30.227Z,0.00
2022-10-29T11:17:34.495Z,0.00
2022-10-29T11:18:38.501Z,0.00
2022-10-29T11:19:42.465Z,0.00
2022-10-29T11:20:46.321Z,0.00
2022-10-29T11:21:50.299Z,0.00
2022-10-29T11:22:54.448Z,0.50
2022-10-29T11:23:58.910Z,0.00
2022-10-29T11:25:02.911Z,0.00
2022-10-29T11:26:07.149Z,0.00
2022-10-29T11:27:11.224Z,0.00
2022-10-29T11:28:15.235Z,0.00
2022-10-29T11:29:19.433Z,0.00
2022-10-29T11:30:26.803Z,0.00
2022-10-29T11:31:30.705Z,0.00
2022-10-29T11:32:34.819Z,0.00
2022-10-29T11:33:39.125Z,0.00
2022-10-29T11:34:43.127Z,0.00
2022-10-29T11:35:47.129Z,0.00
2022-10-29T11:36:50.925Z,0.50
2022-10-29T11:37:55.096Z,-0.25
2022-10-29T11:38:59.322Z,0.00
2022-10-29T11:40:03.224Z,0.00
2022-10-29T11:41:07.164Z,0.00
2022-10-29T11:42:11.133Z,0.00
2022-10-29T11:43:15.029Z,0.00
2022-10-29T11:44:18.961Z,0.00
2022-10-29T11:45:23.029Z,0.00
2022-10-29T11:46:27.031Z,0.00
2022-10-29T11:47:30.993Z,0.00
2022-10-29T11:48:34.930Z,0.00
2022-10-29T11:49:39.030Z,0.00
2022-10-29T11:50:42.928Z,0.00
2022-10-29T11:51:47.038Z,0.00
2022-10-29T11:52:50.723Z,0.50
2022-10-29T11:53:54.629Z,0.25
2022-10-29T11:54:58.593Z,0.00
2022-10-29T11:56:02.812Z,0.00
2022-10-29T11:57:07.147Z,0.00
2022-10-29T11:58:11.137Z,0.00
2022-10-29T11:59:15.322Z,0.50
2022-10-29T12:00:19.458Z,1.00
2022-10-29T12:01:23.549Z,0.50
2022-10-29T12:02:27.665Z,0.00
2022-10-29T12:03:31.459Z,0.00
2022-10-29T12:04:35.510Z,0.00
2022-10-29T12:05:39.456Z,0.50
2022-10-29T12:06:43.352Z,0.25
2022-10-29T12:07:47.186Z,0.25
2022-10-29T12:08:51.457Z,0.00
2022-10-29T12:09:55.153Z,0.50
2022-10-29T12:10:59.044Z,1.00
2022-10-29T12:12:03.053Z,1.00
2022-10-29T12:13:07.032Z,-0.25
2022-10-29T12:14:10.725Z,0.75
2022-10-29T12:15:14.652Z,0.25
2022-10-29T12:16:18.447Z,0.25
2022-10-29T12:17:22.202Z,0.50
2022-10-29T12:18:26.139Z,0.50
2022-10-29T12:19:30.041Z,0.00
2022-10-29T12:20:33.937Z,0.00
2022-10-29T12:21:37.743Z,0.00
2022-10-29T12:22:41.607Z,0.00
2022-10-29T12:23:45.333Z,0.25
2022-10-29T12:24:49.134Z,0.00
2022-10-29T12:25:53.023Z,1.00
2022-10-29T12:26:57.123Z,0.50
2022-10-29T12:28:01.132Z,1.00
2022-10-29T12:29:05.170Z,1.00
2022-10-29T12:30:09.113Z,1.50
2022-10-29T12:31:12.813Z,1.00
2022-10-29T12:32:16.862Z,0.25
2022-10-29T12:33:20.721Z,0.50
2022-10-29T12:34:24.727Z,1.00
2022-10-29T12:35:28.832Z,1.00
2022-10-29T12:36:32.738Z,1.00
2022-10-29T12:37:36.825Z,0.25
2022-10-29T12:38:40.736Z,0.50
2022-10-29T12:39:44.642Z,0.75
2022-10-29T12:40:48.627Z,0.50
2022-10-29T12:41:52.490Z,1.50
2022-10-29T12:42:56.342Z,1.00
2022-10-29T12:44:00.173Z,1.00
2022-10-29T12:45:03.943Z,1.00
2022-10-29T12:46:19.639Z,1.00
2022-10-29T12:47:12.733Z,0.50
2022-10-29T12:48:16.760Z,0.50
2022-10-29T12:49:20.579Z,1.00
2022-10-29T12:50:24.443Z,1.00
2022-10-29T12:51:28.456Z,0.50
2022-10-29T12:52:32.230Z,0.50
2022-10-29T12:53:36.137Z,1.00
2022-10-29T12:54:40.121Z,0.00
2022-10-29T12:55:44.137Z,1.00
2022-10-29T12:56:50.415Z,1.00
2022-10-29T12:57:53.053Z,1.00
2022-10-29T12:58:57.080Z,0.75
2022-10-29T13:00:01.259Z,1.00
2022-10-29T13:01:05.314Z,1.00
2022-10-29T13:02:12.033Z,1.00
2022-10-29T13:03:14.352Z,1.00
2022-10-29T13:04:18.287Z,0.50
2022-10-29T13:05:22.186Z,0.50
2022-10-29T13:06:26.082Z,0.50
2022-10-29T13:07:30.088Z,1.00
2022-10-29T13:08:33.981Z,1.00
2022-10-29T13:09:37.794Z,0.25
2022-10-29T13:10:42.484Z,0.75
2022-10-29T13:11:47.212Z,0.75
2022-10-29T13:12:51.470Z,0.75
2022-10-29T13:13:55.542Z,0.50
2022-10-29T13:15:00.032Z,1.00
2022-10-29T13:16:04.840Z,1.00
2022-10-29T13:17:09.871Z,0.75
2022-10-29T13:18:14.407Z,1.00
2022-10-29T13:19:18.714Z,1.00
2022-10-29T13:20:23.305Z,1.00
2022-10-29T13:21:27.991Z,0.25
2022-10-29T13:22:32.309Z,0.00
2022-10-29T13:23:36.674Z,0.25
2022-10-29T13:24:41.253Z,0.00
2022-10-29T13:25:46.391Z,0.50
2022-10-29T13:26:50.722Z,1.00
2022-10-29T13:27:55.301Z,1.00
2022-10-29T13:28:59.923Z,1.00
2022-10-29T13:30:04.744Z,0.25
2022-10-29T13:31:09.661Z,0.50
2022-10-29T13:32:14.489Z,0.00
2022-10-29T13:33:19.412Z,1.00
2022-10-29T13:34:24.537Z,1.00
2022-10-29T13:35:29.266Z,1.00
2022-10-29T13:36:33.773Z,0.25
2022-10-29T13:37:38.687Z,0.00
2022-10-29T13:38:57.886Z,0.50
2022-10-29T13:39:48.567Z,0.25
2022-10-29T13:40:53.044Z,0.00
2022-10-29T13:41:57.562Z,0.25
2022-10-29T13:43:02.283Z,0.50
2022-10-29T13:44:06.893Z,0.50
2022-10-29T13:45:11.812Z,0.50
2022-10-29T13:46:16.434Z,0.00
2022-10-29T13:47:20.702Z,0.50
2022-10-29T13:48:25.232Z,1.00
2022-10-29T13:49:29.619Z,1.00
2022-10-29T13:50:34.175Z,0.50
2022-10-29T13:51:38.503Z,1.00
2022-10-29T13:52:42.773Z,0.75
2022-10-29T13:53:47.110Z,1.00
2022-10-29T13:54:51.421Z,0.75
2022-10-29T13:55:55.788Z,0.25
2022-10-29T13:56:59.997Z,0.50
2022-10-29T13:58:04.430Z,1.00
2022-10-29T13:59:08.776Z,1.00
2022-10-29T14:00:13.261Z,0.75
2022-10-29T14:01:17.957Z,1.00
2022-10-29T14:02:22.657Z,0.25
2022-10-29T14:03:27.209Z,0.00
2022-10-29T14:04:31.574Z,0.50
2022-10-29T14:05:36.128Z,0.75
2022-10-29T14:06:40.422Z,0.50
2022-10-29T14:07:44.453Z,0.00
2022-10-29T14:08:48.852Z,0.00
2022-10-29T14:09:53.670Z,0.50
2022-10-29T14:10:57.592Z,0.75
2022-10-29T14:12:01.598Z,0.50
2022-10-29T14:13:05.788Z,0.00
2022-10-29T14:14:09.899Z,0.00
2022-10-29T14:15:14.097Z,0.00
2022-10-29T14:16:18.105Z,0.50
2022-10-29T14:17:22.314Z,0.50
2022-10-29T14:18:26.429Z,0.00
2022-10-29T14:19:30.550Z,0.50
2022-10-29T14:20:34.621Z,1.00
2022-10-29T14:21:38.831Z,0.75
2022-10-29T14:22:42.829Z,1.50
2022-10-29T14:23:47.063Z,0.50